Time;durP1;ratioP1;P1;durP2;ratioP2;P2;SDS_P1;SDS_P2;PMS_P1;PMS_P2;Temp;Humidity;BMP_temperature;BMP_pressure;BME280_temperature;BME280_humidity;BME280_pressure;Samples;Min_cycle;Max_cycle;Signal;HPM_P1;HPM_P2
2022/03/14 00:01:18;;;;;;;20.77;15.90;;;5.40;1.00;;;5.38;33.34;101733.53;4954729;29;20226;-71
2022/03/14 00:03:50;;;;;;;22.48;17.15;;;5.40;1.00;;;5.31;33.46;101724.38;4954966;29;20203;-71
2022/03/14 00:06:20;;;;;;;25.23;16.35;;;5.40;1.00;;;5.42;33.42;101729.53;4953662;29;20190;-70
2022/03/14 00:08:50;;;;;;;22.77;17.17;;;5.50;1.00;;;5.42;33.68;101732.22;4953123;28;20203;-70
2022/03/14 00:11:19;;;;;;;26.13;18.60;;;5.40;1.00;;;5.28;33.57;101730.03;4936615;29;20251;-69
2022/03/14 00:13:50;;;;;;;28.35;17.05;;;5.40;1.00;;;5.30;33.67;101729.91;4936038;29;20540;-68
2022/03/14 00:16:25;;;;;;;37.08;23.05;;;5.40;1.00;;;5.43;33.59;101730.38;4953903;29;20804;-69
2022/03/14 00:18:58;;;;;;;24.67;17.67;;;5.40;1.00;;;5.29;33.63;101734.41;4952948;28;20211;-69
2022/03/14 00:21:28;;;;;;;24.85;17.38;;;5.30;1.00;;;5.51;33.27;101720.63;4953318;29;20238;-70
2022/03/14 00:23:59;;;;;;;23.25;17.02;;;5.40;1.00;;;5.37;33.83;101721.13;4952960;29;20319;-70
2022/03/14 00:26:28;;;;;;;29.27;19.25;;;5.40;1.00;;;5.52;33.28;101711.56;4953121;29;20180;-71
2022/03/14 00:28:58;;;;;;;25.48;16.92;;;5.40;1.00;;;5.44;33.72;101710.63;4953429;28;20187;-70
2022/03/14 00:31:27;;;;;;;22.15;16.95;;;5.40;1.00;;;5.36;33.52;101723.94;4953413;29;20180;-70
2022/03/14 00:33:57;;;;;;;24.40;16.38;;;5.40;1.00;;;5.43;33.83;101707.09;4952992;29;20219;-69
2022/03/14 00:36:27;;;;;;;29.30;19.55;;;5.40;1.00;;;5.29;33.65;101718.31;4953132;29;20204;-71
2022/03/14 00:38:56;;;;;;;27.40;18.88;;;5.40;1.00;;;5.22;34.20;101717.22;4952683;28;20282;-72
2022/03/14 00:41:25;;;;;;;20.77;16.33;;;5.30;1.00;;;5.19;34.05;101717.50;4952879;29;20662;-71
2022/03/14 00:43:54;;;;;;;27.85;18.70;;;5.30;1.00;;;5.19;33.93;101714.81;4952596;29;20231;-71
2022/03/14 00:46:23;;;;;;;25.40;18.02;;;5.20;1.00;;;5.12;34.30;101716.41;4952209;29;20192;-71
2022/03/14 00:48:53;;;;;;;24.65;17.45;;;5.20;1.00;;;5.21;34.12;101716.38;4952734;28;20177;-70
2022/03/14 00:51:23;;;;;;;28.50;20.77;;;5.20;1.00;;;5.26;34.11;101718.63;4952760;29;20180;-70
2022/03/14 00:53:52;;;;;;;31.73;19.15;;;5.20;1.00;;;5.07;34.49;101718.69;4952830;29;20183;-70
2022/03/14 00:56:21;;;;;;;29.55;19.08;;;5.20;1.00;;;5.01;34.26;101713.91;4952725;29;20667;-67
2022/03/14 00:58:50;;;;;;;25.95;17.20;;;5.10;1.00;;;5.00;34.36;101717.56;4935163;28;20215;-69
2022/03/14 01:01:21;;;;;;;28.30;18.00;;;5.10;1.00;;;4.94;34.58;101712.81;4954010;28;20168;-70
2022/03/14 01:03:51;;;;;;;28.15;19.85;;;5.00;1.00;;;4.78;35.00;101711.59;4957775;29;20487;-70
2022/03/14 01:06:20;;;;;;;23.60;18.90;;;4.90;1.00;;;4.78;34.91;101708.91;4958019;29;20248;-71
2022/03/14 01:08:50;;;;;;;23.13;15.90;;;4.90;1.00;;;4.80;34.89;101709.59;4957850;28;20222;-70
2022/03/14 01:11:19;;;;;;;29.83;17.75;;;4.80;1.00;;;4.66;35.12;101710.03;4957226;29;20196;-69
2022/03/14 01:13:48;;;;;;;30.92;20.95;;;4.80;1.00;;;4.62;35.36;101703.28;4957397;29;20624;-70
2022/03/14 01:16:17;;;;;;;30.67;17.17;;;4.70;1.00;;;4.66;35.30;101696.63;4956872;29;20255;-70
2022/03/14 01:18:46;;;;;;;28.13;18.27;;;4.70;1.00;;;4.67;35.19;101701.00;4956616;28;20199;-70
2022/03/14 01:21:15;;;;;;;26.60;17.17;;;4.80;1.00;;;4.60;35.50;101705.25;4955269;28;20614;-70
2022/03/14 01:23:45;;;;;;;25.83;16.33;;;4.70;1.00;;;4.54;35.37;101703.16;4957080;29;20212;-71
2022/03/14 01:26:17;;;;;;;24.90;18.13;;;4.60;1.00;;;4.54;35.78;101710.34;4956293;29;20215;-70
2022/03/14 01:28:48;;;;;;;23.13;17.15;;;4.60;1.00;;;4.62;35.59;101708.66;4955863;28;20188;-69
2022/03/14 01:31:18;;;;;;;23.42;17.17;;;4.60;1.00;;;4.54;35.67;101723.75;4956511;29;20188;-69
2022/03/14 01:33:48;;;;;;;24.08;17.38;;;4.60;1.00;;;4.56;35.42;101713.72;4956494;29;20161;-70
2022/03/14 01:36:17;;;;;;;25.00;18.02;;;4.60;1.00;;;4.55;35.62;101715.56;4956335;29;20188;-71
2022/03/14 01:38:46;;;;;;;23.00;15.93;;;4.60;1.00;;;4.49;35.64;101713.47;4956313;28;20191;-68
2022/03/14 01:41:19;;;;;;;26.20;17.35;;;4.60;1.00;;;4.60;35.22;101715.16;4956914;29;20204;-69
2022/03/14 01:43:48;;;;;;;29.75;19.73;;;4.60;1.00;;;4.58;35.50;101717.13;4956156;29;20197;-71
2022/03/14 01:46:18;;;;;;;21.00;16.40;;;4.60;1.00;;;4.49;35.55;101717.97;4956449;29;20180;-71
2022/03/14 01:48:47;;;;;;;31.90;19.23;;;4.60;1.00;;;4.43;35.81;101714.03;4955587;28;20614;-70
2022/03/14 01:51:18;;;;;;;27.33;17.25;;;4.50;1.00;;;4.47;35.64;101710.06;4955685;29;20604;-69
2022/03/14 01:53:48;;;;;;;25.65;17.83;;;4.50;1.00;;;4.54;35.54;101713.03;4955903;29;20638;-70
2022/03/14 01:56:18;;;;;;;27.92;16.55;;;4.50;1.00;;;4.56;35.40;101713.72;4955657;29;20197;-70
2022/03/14 01:58:48;;;;;;;27.63;19.30;;;4.60;1.00;;;4.53;35.54;101714.00;4955836;28;20200;-69
2022/03/14 02:01:17;;;;;;;27.38;18.85;;;4.60;1.00;;;4.32;35.75;101712.34;4955041;29;20197;-70
2022/03/14 02:03:47;;;;;;;28.17;18.75;;;4.50;1.00;;;4.51;35.40;101715.97;4955544;29;20202;-71
2022/03/14 02:06:17;;;;;;;21.17;16.45;;;4.50;1.00;;;4.53;35.60;101711.34;4955721;29;20200;-69
2022/03/14 02:08:46;;;;;;;24.48;17.50;;;4.50;1.00;;;4.52;35.60;101710.50;4955126;28;20196;-70
2022/03/14 02:11:18;;;;;;;24.75;17.50;;;4.50;1.00;;;4.46;35.58;101716.41;4955663;29;20188;-70
2022/03/14 02:13:47;;;;;;;23.92;17.80;;;4.50;1.00;;;4.42;35.71;101711.47;4955056;28;20215;-70
2022/03/14 02:16:16;;;;;;;29.92;16.52;;;4.50;1.00;;;4.42;35.48;101709.66;4954931;29;20275;-69
2022/03/14 02:18:45;;;;;;;27.05;17.17;;;4.50;1.00;;;4.42;35.71;101704.28;4955111;28;20188;-71
2022/03/14 02:21:15;;;;;;;28.35;16.55;;;4.50;1.00;;;4.36;35.60;101702.16;4955134;29;20267;-71
2022/03/14 02:23:45;;;;;;;22.60;15.65;;;4.40;1.00;;;4.42;35.33;101695.41;4955171;29;20175;-69
2022/03/14 02:26:14;;;;;;;31.40;17.95;;;4.50;1.00;;;4.35;35.61;101700.50;4955165;29;20192;-69
2022/03/14 02:28:43;;;;;;;23.65;14.88;;;4.40;1.00;;;4.27;35.82;101703.03;4955004;28;20239;-70
2022/03/14 02:31:11;;;;;;;30.45;16.20;;;4.30;1.00;;;4.23;35.85;101701.63;4955222;29;20697;-70
2022/03/14 02:33:43;;;;;;;24.08;17.02;;;4.30;1.00;;;4.24;35.81;101689.94;4955253;29;20191;-70
2022/03/14 02:36:12;;;;;;;25.08;15.80;;;4.30;1.00;;;4.28;35.73;101694.00;4916875;29;20517;-68
2022/03/14 02:38:43;;;;;;;24.27;17.13;;;4.30;1.00;;;4.19;35.95;101701.06;4917240;29;20190;-71
2022/03/14 02:41:12;;;;;;;25.75;17.13;;;4.30;1.00;;;4.14;35.97;101697.13;4917017;29;20221;-71
2022/03/14 02:43:42;;;;;;;24.45;15.98;;;4.30;1.00;;;4.16;36.12;101700.50;4916810;29;20702;-71
2022/03/14 02:46:12;;;;;;;26.25;15.65;;;4.20;1.00;;;4.06;36.30;101711.22;4916794;29;20303;-71
2022/03/14 02:48:41;;;;;;;28.95;18.95;;;4.20;1.00;;;4.06;36.18;101705.88;4917330;29;20669;-69
2022/03/14 02:51:10;;;;;;;19.88;15.40;;;4.20;1.00;;;4.02;35.82;101714.31;4930826;29;20174;-70
2022/03/14 02:53:39;;;;;;;25.80;16.58;;;4.10;1.00;;;3.98;36.34;101723.59;4933378;29;20178;-68
2022/03/14 02:56:09;;;;;;;27.60;17.45;;;4.10;1.00;;;3.78;36.64;101726.25;4932029;29;20193;-70
2022/03/14 02:58:41;;;;;;;29.90;17.98;;;4.00;1.00;;;4.00;36.11;101732.34;4917802;29;20208;-68
2022/03/14 03:01:10;;;;;;;26.40;15.93;;;4.00;1.00;;;3.89;36.19;101727.97;4917052;29;20182;-70
2022/03/14 03:03:40;;;;;;;28.90;17.38;;;4.00;1.00;;;3.88;36.32;101734.28;4919086;29;20189;-71
2022/03/14 03:06:10;;;;;;;27.75;16.33;;;4.00;1.00;;;3.83;36.67;101732.03;4920153;29;20292;-70
2022/03/14 03:08:39;;;;;;;25.75;18.55;;;4.00;1.00;;;3.96;36.00;101725.59;4923737;29;20237;-70
2022/03/14 03:11:10;;;;;;;25.33;16.58;;;4.00;1.00;;;4.03;36.09;101734.75;4930371;29;20178;-70
2022/03/14 03:13:41;;;;;;;31.15;17.20;;;4.00;1.00;;;4.05;36.01;101732.78;4931023;29;20177;-69
2022/03/14 03:16:13;;;;;;;22.10;15.20;;;4.10;1.00;;;3.90;36.27;101738.53;4932926;29;20170;-68
2022/03/14 03:18:43;;;;;;;28.40;16.50;;;4.00;1.00;;;3.88;36.27;101735.16;4928932;29;20193;-69
2022/03/14 03:21:12;;;;;;;25.08;17.20;;;4.00;1.00;;;3.93;36.49;101735.59;4923863;29;20217;-68
2022/03/14 03:23:42;;;;;;;21.85;16.58;;;4.00;1.00;;;3.90;36.07;101738.53;4923050;29;20177;-68
2022/03/14 03:26:15;;;;;;;25.73;16.88;;;4.00;1.00;;;3.88;36.27;101743.19;4905103;29;20600;-68
2022/03/14 03:28:44;;;;;;;21.75;15.77;;;4.00;1.00;;;3.73;36.29;101749.91;4918727;29;20185;-69
2022/03/14 03:31:16;;;;;;;29.08;17.55;;;3.90;1.00;;;3.90;36.17;101754.63;4919383;29;20193;-70
2022/03/14 03:33:47;;;;;;;25.20;16.20;;;3.90;1.00;;;3.92;35.79;101749.13;4920312;29;20196;-70
2022/03/14 03:36:16;;;;;;;24.42;16.58;;;4.00;1.00;;;3.85;36.33;101751.50;4919719;29;20185;-69
2022/03/14 03:38:45;;;;;;;27.17;17.13;;;4.00;1.00;;;3.95;36.16;101756.88;4917005;29;20197;-69
2022/03/14 03:41:17;;;;;;;25.35;17.33;;;4.00;1.00;;;3.89;36.09;101757.41;4915980;29;20272;-69
2022/03/14 03:43:46;;;;;;;24.65;16.52;;;4.00;1.00;;;3.90;36.08;101749.25;4916072;29;20197;-71
2022/03/14 03:46:15;;;;;;;22.25;14.40;;;4.00;1.00;;;3.89;35.98;101752.91;4915551;29;20296;-70
2022/03/14 03:48:44;;;;;;;24.77;16.48;;;4.00;1.00;;;3.83;36.13;101756.13;4917320;29;20240;-69
2022/03/14 03:51:13;;;;;;;26.05;17.13;;;3.90;1.00;;;3.94;35.85;101758.69;4916555;29;20244;-69
2022/03/14 03:53:42;;;;;;;27.40;17.50;;;4.00;1.00;;;3.85;36.28;101754.19;4916993;29;20223;-71
2022/03/14 03:56:11;;;;;;;26.08;16.15;;;3.90;1.00;;;3.86;36.14;101753.22;4916680;29;20192;-69
2022/03/14 03:58:45;;;;;;;22.30;15.70;;;4.00;1.00;;;3.92;36.15;101749.13;4976113;23;20228;-69
2022/03/14 04:01:21;;;;;;;26.70;14.98;;;3.90;1.00;;;3.84;36.20;101749.81;4976664;28;20186;-69
2022/03/14 04:03:55;;;;;;;20.42;13.77;;;4.00;1.00;;;3.87;36.12;101749.50;4975776;28;20540;-70
2022/03/14 04:06:30;;;;;;;25.25;16.10;;;3.90;1.00;;;3.83;35.77;101744.56;4975605;28;20186;-68
2022/03/14 04:09:00;;;;;;;33.10;19.13;;;3.90;1.00;;;3.70;36.28;101747.50;4976919;28;20210;-70
2022/03/14 04:11:29;;;;;;;24.83;16.92;;;3.80;1.00;;;3.70;36.32;101741.31;4975249;28;20667;-68
2022/03/14 04:14:00;;;;;;;27.33;15.90;;;3.80;1.00;;;3.60;36.54;101735.94;4996218;23;20259;-67
2022/03/14 04:16:30;;;;;;;22.35;15.30;;;3.80;1.00;;;3.69;36.46;101737.78;4971913;28;20262;-68
2022/03/14 04:18:59;;;;;;;23.67;15.95;;;3.80;1.00;;;3.66;36.20;101737.22;4971653;28;20180;-67
2022/03/14 04:21:28;;;;;;;28.20;15.82;;;3.70;1.00;;;3.72;36.36;101745.56;4971585;28;20855;-67
2022/03/14 04:23:57;;;;;;;26.17;16.20;;;3.80;1.00;;;3.66;36.62;101745.25;4971667;28;20546;-68
2022/03/14 04:26:26;;;;;;;21.83;13.82;;;3.70;1.00;;;3.55;36.49;101746.19;4953954;28;20212;-66
2022/03/14 04:28:55;;;;;;;22.73;16.30;;;3.70;1.00;;;3.64;36.36;101750.72;4971446;28;20227;-69
2022/03/14 04:31:25;;;;;;;25.92;16.48;;;3.70;1.00;;;3.61;36.46;101758.19;4971291;28;20597;-69
2022/03/14 04:33:54;;;;;;;23.35;15.20;;;3.70;1.00;;;3.31;36.96;101762.59;4971537;28;20178;-67
2022/03/14 04:36:23;;;;;;;28.25;15.73;;;3.60;1.00;;;3.24;37.20;101757.94;4971718;28;20701;-67
2022/03/14 04:38:52;;;;;;;25.42;15.45;;;3.50;1.00;;;3.50;36.83;101759.16;4975292;28;20190;-67
2022/03/14 04:41:21;;;;;;;30.95;16.45;;;3.50;1.00;;;3.29;37.09;101758.38;4975571;28;20180;-68
2022/03/14 04:43:50;;;;;;;30.17;17.85;;;3.50;1.00;;;3.21;37.48;101758.16;4974945;28;20592;-68
2022/03/14 04:46:19;;;;;;;26.92;15.50;;;3.40;1.00;;;3.26;37.47;101748.78;4975026;28;20318;-68
2022/03/14 04:48:50;;;;;;;26.73;16.65;;;3.40;1.00;;;3.20;37.39;101757.31;4974631;28;20172;-69
2022/03/14 04:51:18;;;;;;;21.33;16.25;;;3.40;1.00;;;3.23;37.22;101759.75;4975073;28;20246;-68
2022/03/14 04:53:47;;;;;;;21.05;15.90;;;3.40;1.00;;;3.33;37.27;101767.81;4974991;28;20187;-68
2022/03/14 04:56:16;;;;;;;28.95;16.08;;;3.40;1.00;;;3.35;37.34;101769.38;4975522;28;20180;-68
2022/03/14 04:58:45;;;;;;;25.48;16.55;;;3.40;1.00;;;3.42;37.20;101767.84;4957483;28;20750;-69
2022/03/14 05:01:14;;;;;;;30.33;16.95;;;3.40;1.00;;;3.50;37.07;101769.84;4974742;28;20715;-68
2022/03/14 05:03:43;;;;;;;25.25;15.40;;;3.50;1.00;;;3.39;37.18;101781.47;4974912;28;20258;-68
2022/03/14 05:06:13;;;;;;;24.55;17.58;;;3.50;1.00;;;3.43;37.00;101787.44;4974833;28;20223;-68
2022/03/14 05:08:42;;;;;;;26.67;17.08;;;3.50;1.00;;;3.31;37.28;101783.16;4974690;28;20686;-68
2022/03/14 05:11:11;;;;;;;25.02;16.58;;;3.50;1.00;;;3.14;37.52;101786.44;4975304;28;20246;-68
2022/03/14 05:13:41;;;;;;;30.27;17.40;;;3.40;1.00;;;3.25;37.40;101786.34;4974713;28;20219;-68
2022/03/14 05:16:10;;;;;;;25.65;18.38;;;3.40;1.00;;;3.20;37.72;101792.09;4975238;28;20184;-67
2022/03/14 05:18:39;;;;;;;29.08;18.00;;;3.30;1.00;;;3.21;37.83;101787.59;4974860;28;20167;-68
2022/03/14 05:21:08;;;;;;;26.13;16.05;;;3.30;1.00;;;3.16;37.78;101789.81;4975384;28;20200;-68
2022/03/14 05:23:38;;;;;;;29.38;18.48;;;3.30;1.00;;;3.24;37.57;101790.88;4975216;28;20184;-69
2022/03/14 05:26:07;;;;;;;28.77;17.83;;;3.30;1.00;;;3.14;37.74;101787.31;4975394;28;20220;-68
2022/03/14 05:28:36;;;;;;;24.30;17.38;;;3.30;1.00;;;3.11;38.04;101787.53;4975472;28;20180;-68
2022/03/14 05:31:05;;;;;;;26.88;16.55;;;3.20;1.00;;;3.17;37.90;101784.34;4974966;28;20191;-67
2022/03/14 05:33:34;;;;;;;23.70;17.13;;;3.20;1.00;;;3.13;37.90;101790.94;4957486;28;20184;-66
2022/03/14 05:36:03;;;;;;;32.65;17.13;;;3.20;1.00;;;3.15;37.88;101788.16;4974489;28;20693;-68
2022/03/14 05:38:32;;;;;;;27.30;17.30;;;3.20;1.00;;;3.20;37.74;101791.25;4974404;28;20222;-68
2022/03/14 05:41:02;;;;;;;31.33;19.33;;;3.20;1.00;;;3.17;37.88;101791.53;4974333;28;20211;-68
2022/03/14 05:43:36;;;;;;;23.25;17.13;;;3.20;1.00;;;3.10;38.14;101791.19;4974237;28;20553;-69
2022/03/14 05:46:07;;;;;;;24.45;16.92;;;3.20;1.00;;;3.13;38.11;101790.09;4974164;28;20278;-68
2022/03/14 05:48:36;;;;;;;24.23;16.45;;;3.20;1.00;;;3.08;38.15;101795.00;4973581;28;20695;-69
2022/03/14 05:51:07;;;;;;;24.95;18.48;;;3.20;1.00;;;3.05;38.43;101796.09;4974179;28;20222;-68
2022/03/14 05:53:36;;;;;;;25.27;17.70;;;3.20;1.00;;;3.17;38.01;101792.38;4973629;28;20176;-68
2022/03/14 05:56:06;;;;;;;28.30;19.00;;;3.20;1.00;;;3.24;38.04;101790.03;4974227;28;20218;-67
2022/03/14 05:58:35;;;;;;;28.15;16.77;;;3.30;1.00;;;3.23;38.12;101796.34;4973864;28;20180;-67
2022/03/14 06:01:04;;;;;;;22.40;16.63;;;3.30;1.00;;;3.35;37.71;101806.81;4973870;28;20212;-68
2022/03/14 06:03:33;;;;;;;25.65;17.95;;;3.30;1.00;;;3.39;37.63;101802.88;4973537;28;20183;-68
2022/03/14 06:06:03;;;;;;;27.08;17.40;;;3.40;1.00;;;3.49;37.44;101795.75;4973654;28;20227;-68
2022/03/14 06:08:32;;;;;;;22.67;15.70;;;3.50;1.00;;;3.47;37.30;101804.91;4973415;28;20617;-69
2022/03/14 06:11:03;;;;;;;32.83;18.35;;;3.50;1.00;;;3.49;37.42;101816.31;4956370;28;20273;-67
2022/03/14 06:13:33;;;;;;;24.83;16.05;;;3.50;1.00;;;3.54;37.48;101811.41;4973471;28;20631;-68
2022/03/14 06:16:02;;;;;;;31.80;18.83;;;3.50;1.00;;;3.43;37.75;101814.19;4973499;28;20176;-68
2022/03/14 06:18:32;;;;;;;27.05;17.63;;;3.50;1.00;;;3.54;37.52;101811.41;4973393;28;20182;-68
2022/03/14 06:21:00;;;;;;;25.95;16.98;;;3.50;1.00;;;3.58;37.45;101823.56;4973238;28;20218;-68
2022/03/14 06:23:29;;;;;;;24.35;17.42;;;3.60;1.00;;;3.65;37.59;101823.84;4973266;28;20625;-69
2022/03/14 06:25:59;;;;;;;27.38;18.17;;;3.60;1.00;;;3.60;37.69;101821.59;4973275;28;20470;-68
2022/03/14 06:28:28;;;;;;;25.15;17.70;;;3.60;1.00;;;3.83;37.53;101816.88;4974057;28;20662;-68
2022/03/14 06:30:59;;;;;;;24.85;17.60;;;3.70;1.00;;;3.78;37.41;101822.63;4973484;28;20218;-66
2022/03/14 06:33:28;;;;;;;26.95;17.25;;;3.80;1.00;;;3.85;37.30;101815.78;4973278;28;20180;-67
2022/03/14 06:35:57;;;;;;;27.17;19.85;;;3.90;1.00;;;3.92;37.22;101819.56;4973558;28;20262;-68
2022/03/14 06:38:25;;;;;;;29.75;21.15;;;3.90;1.00;;;4.00;36.92;101820.75;4973380;28;20597;-67
2022/03/14 06:40:56;;;;;;;26.38;18.92;;;3.90;1.00;;;4.15;36.49;101828.25;4973457;28;20389;-68
2022/03/14 06:43:25;;;;;;;29.63;18.75;;;4.10;1.00;;;4.20;36.60;101833.19;4973615;28;20188;-68
2022/03/14 06:45:55;;;;;;;30.20;19.30;;;4.10;1.00;;;4.21;36.22;101832.22;4973776;28;20654;-68
2022/03/14 06:48:25;;;;;;;29.77;17.52;;;4.20;1.00;;;4.33;36.11;101831.09;4973222;28;20180;-68
2022/03/14 06:50:54;;;;;;;22.38;17.98;;;4.20;1.00;;;4.35;36.21;101837.19;4955505;28;20310;-68
2022/03/14 06:53:23;;;;;;;28.17;17.58;;;4.30;1.00;;;4.39;36.34;101846.63;4972978;28;20721;-68
2022/03/14 06:55:52;;;;;;;26.42;18.13;;;4.40;1.00;;;4.52;36.06;101846.34;4955695;28;20191;-69
2022/03/14 06:58:22;;;;;;;26.40;18.30;;;4.40;1.00;;;4.58;35.69;101851.16;4955731;28;20191;-68
2022/03/14 07:00:51;;;;;;;28.73;18.42;;;4.50;1.00;;;4.69;36.05;101851.03;4972631;28;20768;-68
2022/03/14 07:03:20;;;;;;;27.17;18.88;;;4.60;1.00;;;4.87;35.77;101857.38;4972920;28;20186;-68
2022/03/14 07:05:51;;;;;;;24.27;17.92;;;4.70;1.00;;;4.99;35.29;101858.91;4973063;28;20646;-67
2022/03/14 07:08:20;;;;;;;25.38;17.88;;;4.90;1.00;;;5.10;34.86;101864.13;4972547;28;20258;-68
2022/03/14 07:10:48;;;;;;;31.38;20.05;;;5.00;1.00;;;5.20;35.12;101854.22;4972802;28;20302;-67
2022/03/14 07:13:19;;;;;;;23.98;18.27;;;5.10;1.00;;;5.36;34.79;101855.47;4972642;28;20565;-68
2022/03/14 07:15:48;;;;;;;36.00;18.15;;;5.20;1.00;;;5.41;34.58;101848.69;4973755;28;20222;-69
2022/03/14 07:18:17;;;;;;;25.38;17.50;;;5.30;1.00;;;5.48;34.52;101860.50;4973411;28;20195;-68
2022/03/14 07:20:45;;;;;;;26.80;17.67;;;5.40;1.00;;;5.53;34.39;101854.69;4972586;28;20222;-68
2022/03/14 07:23:16;;;;;;;28.08;17.85;;;5.40;1.00;;;5.68;34.14;101851.41;4972086;28;20168;-68
2022/03/14 07:25:44;;;;;;;23.25;17.77;;;5.50;1.00;;;5.76;33.66;101855.19;4972876;28;20431;-67
2022/03/14 07:28:14;;;;;;;28.00;18.02;;;5.60;1.00;;;5.78;33.82;101864.78;4971713;28;20279;-68
2022/03/14 07:30:45;;;;;;;25.50;17.60;;;5.70;1.00;;;5.84;33.81;101858.00;4955751;28;20355;-69
2022/03/14 07:33:15;;;;;;;25.95;17.05;;;5.70;1.00;;;5.96;33.42;101856.81;4973615;28;20183;-67
2022/03/14 07:35:44;;;;;;;25.35;16.88;;;5.90;1.00;;;6.20;33.28;101859.81;4972420;28;20263;-69
2022/03/14 07:38:15;;;;;;;23.58;18.80;;;6.00;1.00;;;6.33;33.19;101871.06;4972587;28;20188;-66
2022/03/14 07:40:44;;;;;;;24.70;16.00;;;6.20;1.00;;;6.47;33.10;101867.84;4971785;28;20230;-68
2022/03/14 07:43:13;;;;;;;22.92;16.40;;;6.30;1.00;;;6.52;32.37;101859.31;4972237;28;20700;-68
2022/03/14 07:45:42;;;;;;;22.50;17.55;;;6.40;1.00;;;6.60;32.56;101861.25;4972628;28;20183;-69
2022/03/14 07:48:13;;;;;;;23.00;18.25;;;6.50;1.00;;;6.66;32.54;101863.31;4972653;28;20717;-69
2022/03/14 07:50:42;;;;;;;23.25;16.63;;;6.60;1.00;;;6.90;32.48;101856.34;4971559;28;20701;-68
2022/03/14 07:53:11;;;;;;;25.92;17.45;;;6.70;1.00;;;6.92;32.43;101865.06;4971921;28;20218;-70
2022/03/14 07:55:41;;;;;;;32.55;17.75;;;6.80;1.00;;;7.04;32.19;101854.94;4972746;28;20547;-69
2022/03/14 07:58:10;;;;;;;24.65;17.23;;;6.90;1.00;;;7.06;32.30;101865.53;4971742;28;20207;-69
2022/03/14 08:00:39;;;;;;;24.60;17.95;;;6.90;1.00;;;7.16;32.18;101869.00;4972167;28;20219;-69
2022/03/14 08:03:08;;;;;;;20.85;16.33;;;7.00;1.00;;;7.30;32.31;101863.88;4971876;28;20300;-68
2022/03/14 08:05:37;;;;;;;24.13;16.52;;;7.10;1.00;;;7.21;31.84;101862.13;4971616;28;20201;-69
2022/03/14 08:08:08;;;;;;;26.65;17.30;;;7.10;1.00;;;7.27;32.15;101856.09;4971710;28;20286;-69
2022/03/14 08:10:39;;;;;;;23.85;17.08;;;7.20;1.00;;;7.21;32.13;101861.31;4971391;28;20211;-70
2022/03/14 08:13:10;;;;;;;27.40;17.48;;;7.10;1.00;;;7.28;32.20;101863.19;4971557;28;20210;-69
2022/03/14 08:15:39;;;;;;;22.65;16.90;;;7.10;1.00;;;7.48;31.82;101862.97;4971683;28;20215;-68
2022/03/14 08:18:10;;;;;;;25.95;16.85;;;7.30;1.00;;;7.64;31.38;101857.72;4971732;28;20175;-70
2022/03/14 08:20:39;;;;;;;28.42;18.85;;;7.40;1.00;;;7.72;31.48;101857.75;4971522;28;20234;-69
2022/03/14 08:23:09;;;;;;;22.15;16.67;;;7.50;1.00;;;7.89;31.53;101862.19;4970151;28;20207;-69
2022/03/14 08:25:38;;;;;;;33.33;17.90;;;7.70;1.00;;;7.97;30.91;101853.31;4971640;28;20175;-69
2022/03/14 08:28:09;;;;;;;22.38;16.27;;;7.80;1.00;;;8.24;30.21;101853.91;4971396;28;20282;-69
2022/03/14 08:30:38;;;;;;;27.88;17.10;;;8.00;1.00;;;8.28;30.60;101849.88;4974676;28;20211;-70
2022/03/14 08:33:08;;;;;;;22.75;16.67;;;8.10;1.00;;;8.37;30.38;101844.56;4974403;28;20195;-69
2022/03/14 08:35:37;;;;;;;27.35;16.52;;;8.20;1.00;;;8.32;30.11;101847.75;4957156;28;20199;-69
2022/03/14 08:38:06;;;;;;;20.05;15.82;;;8.20;1.00;;;8.43;30.24;101847.44;4973792;28;20828;-70
2022/03/14 08:40:35;;;;;;;19.65;15.18;;;8.30;1.00;;;8.63;29.78;101845.28;4973699;28;20258;-70
2022/03/14 08:43:04;;;;;;;21.10;15.85;;;8.40;1.00;;;8.70;30.16;101854.41;4973497;28;20184;-70
2022/03/14 08:45:34;;;;;;;19.98;15.32;;;8.50;1.00;;;8.85;29.75;101863.53;4957512;28;20199;-68
2022/03/14 08:48:05;;;;;;;18.52;16.08;;;8.60;1.00;;;8.93;29.18;101860.84;4954974;28;20234;-69
2022/03/14 08:50:34;;;;;;;19.08;16.35;;;8.70;1.00;;;9.05;29.35;101855.97;4971930;28;20266;-68
2022/03/14 08:53:03;;;;;;;19.55;13.90;;;8.90;1.00;;;9.12;29.59;101863.19;4953847;28;20609;-69
2022/03/14 08:55:32;;;;;;;20.45;15.20;;;8.90;1.00;;;9.34;29.24;101875.19;4971347;28;20292;-70
2022/03/14 08:58:02;;;;;;;18.55;13.95;;;9.10;1.00;;;9.34;28.86;101861.69;4971181;28;20176;-69
2022/03/14 09:00:31;;;;;;;23.08;15.65;;;9.10;1.00;;;9.44;29.03;101872.31;4971426;28;20207;-69
2022/03/14 09:03:02;;;;;;;19.30;14.48;;;9.30;1.00;;;9.35;28.89;101868.75;4971202;28;20187;-69
2022/03/14 09:05:31;;;;;;;21.90;14.70;;;9.20;1.00;;;9.46;29.20;101864.84;4971313;28;20266;-69
2022/03/14 09:08:00;;;;;;;22.23;14.90;;;9.30;1.00;;;9.70;28.81;101862.09;4971078;28;20448;-68
2022/03/14 09:10:31;;;;;;;24.58;14.30;;;9.40;1.00;;;9.81;28.55;101864.44;4971522;28;20203;-69
2022/03/14 09:13:00;;;;;;;15.02;13.05;;;9.60;1.00;;;9.80;28.27;101857.34;4971452;28;20365;-69
2022/03/14 09:15:31;;;;;;;18.63;13.65;;;9.60;1.00;;;9.73;28.42;101856.34;4953936;28;20179;-70
2022/03/14 09:18:03;;;;;;;15.30;13.32;;;9.60;1.00;;;9.78;28.36;101855.84;4971214;28;20184;-69
2022/03/14 09:20:38;;;;;;;21.40;15.65;;;9.60;1.00;;;9.78;28.25;101847.72;4971749;28;20263;-70
2022/03/14 09:23:08;;;;;;;19.25;13.93;;;9.60;1.00;;;9.87;28.13;101852.94;4973151;28;20202;-68
2022/03/14 09:25:37;;;;;;;16.75;13.57;;;9.70;1.00;;;9.73;28.07;101856.34;4975217;28;20193;-69
2022/03/14 09:28:06;;;;;;;19.35;14.88;;;9.70;1.00;;;9.54;28.17;101859.41;4974697;28;20250;-70
2022/03/14 09:30:35;;;;;;;20.92;13.95;;;9.50;1.00;;;9.65;28.23;101853.66;4974434;28;20207;-70
2022/03/14 09:33:05;;;;;;;20.17;12.98;;;9.50;1.00;;;9.96;28.24;101854.59;4974009;28;20582;-69
2022/03/14 09:35:35;;;;;;;18.88;14.77;;;9.70;1.00;;;10.25;28.14;101861.25;4974479;28;20657;-69
2022/03/14 09:38:04;;;;;;;18.40;14.95;;;9.90;1.00;;;10.18;27.88;101846.75;4974526;28;20179;-69
2022/03/14 09:40:33;;;;;;;17.50;14.18;;;9.90;1.00;;;10.02;27.91;101843.06;4974131;28;20207;-69
2022/03/14 09:43:03;;;;;;;16.00;13.40;;;9.90;1.00;;;10.16;27.67;101844.22;4974190;28;20179;-68
2022/03/14 09:45:37;;;;;;;14.80;12.48;;;9.90;1.00;;;10.21;28.03;101838.28;4974260;28;20179;-67
2022/03/14 09:48:11;;;;;;;23.07;14.27;;;9.90;1.00;;;10.49;27.60;101842.19;4974521;28;20199;-69
2022/03/14 09:50:44;;;;;;;16.75;13.98;;;10.20;1.00;;;10.47;27.56;101836.09;4974273;28;20878;-68
2022/03/14 09:53:16;;;;;;;18.67;15.03;;;10.20;1.00;;;10.48;27.96;101835.06;4974561;28;20199;-69
2022/03/14 09:55:48;;;;;;;20.10;15.63;;;10.20;1.00;;;10.72;27.81;101843.03;4974013;28;20411;-70
2022/03/14 09:58:20;;;;;;;19.90;12.93;;;10.40;1.00;;;10.78;27.24;101842.31;4973919;28;20180;-69
2022/03/14 10:00:51;;;;;;;17.57;14.00;;;10.50;1.00;;;10.98;27.04;101849.97;4973423;28;20451;-69
2022/03/14 10:03:23;;;;;;;16.87;13.70;;;10.60;1.00;;;10.87;27.26;101838.53;4972678;28;20431;-70
2022/03/14 10:05:56;;;;;;;18.88;13.30;;;10.60;1.00;;;11.10;27.38;101843.06;4974422;28;20430;-69
2022/03/14 10:08:25;;;;;;;21.93;14.97;;;10.80;1.00;;;11.16;27.15;101850.47;4974499;28;20235;-70
2022/03/14 10:10:54;;;;;;;15.40;12.90;;;10.90;1.00;;;11.20;26.98;101851.78;4974260;28;20485;-68
2022/03/14 10:13:41;;;;;;;17.20;14.87;;;10.90;1.00;;;11.36;26.94;101843.50;4975655;28;20199;-68
2022/03/14 10:16:11;;;;;;;23.00;15.50;;;11.10;1.00;;;11.31;27.04;101848.66;4976148;28;20455;-69
2022/03/14 10:18:56;;;;;;;19.33;14.17;;;11.10;1.00;;;11.45;27.07;101845.13;4976151;28;20832;-69
2022/03/14 10:21:34;;;;;;;18.90;15.27;;;11.10;1.00;;;11.64;26.95;101850.00;4975249;28;20801;-69
2022/03/14 10:24:06;;;;;;;18.10;12.87;;;11.30;1.00;;;11.69;26.70;101841.31;4975965;28;20461;-70
2022/03/14 10:26:37;;;;;;;18.07;13.50;;;11.50;1.00;;;11.86;26.92;101847.41;4957208;28;20854;-69
2022/03/14 10:29:11;;;;;;;19.03;13.27;;;11.60;1.00;;;12.02;26.50;101852.63;4974085;28;20498;-69